sensor_id;sensor_type;location;lat;lon;timestamp;temperature;humidity
13405;DHT22;6773;51.192;7.024;2023-04-03T00:02:07;1.20;99.90
13405;DHT22;6773;51.192;7.024;2023-04-03T00:04:32;1.20;99.90
13405;DHT22;6773;51.192;7.024;2023-04-03T00:06:58;1.20;99.90
13405;DHT22;6773;51.192;7.024;2023-04-03T00:09:23;1.20;99.90
13405;DHT22;6773;51.192;7.024;2023-04-03T00:11:49;1.10;99.90
13405;DHT22;6773;51.192;7.024;2023-04-03T00:14:15;1.00;99.90
13405;DHT22;6773;51.192;7.024;2023-04-03T00:19:07;0.80;99.90
13405;DHT22;6773;51.192;7.024;2023-04-03T00:21:33;1.00;99.90
13405;DHT22;6773;51.192;7.024;2023-04-03T00:23:59;1.00;99.90
13405;DHT22;6773;51.192;7.024;2023-04-03T00:26:25;1.00;99.90
13405;DHT22;6773;51.192;7.024;2023-04-03T00:33:43;1.10;99.90
13405;DHT22;6773;51.192;7.024;2023-04-03T00:36:09;1.10;99.90
13405;DHT22;6773;51.192;7.024;2023-04-03T00:38:36;1.20;99.90
13405;DHT22;6773;51.192;7.024;2023-04-03T00:41:02;1.10;99.90
13405;DHT22;6773;51.192;7.024;2023-04-03T00:43:27;1.20;99.90
13405;DHT22;6773;51.192;7.024;2023-04-03T00:45:55;1.20;99.90
13405;DHT22;6773;51.192;7.024;2023-04-03T00:50:59;1.20;99.90
13405;DHT22;6773;51.192;7.024;2023-04-03T00:53:50;1.20;99.90
13405;DHT22;6773;51.192;7.024;2023-04-03T00:56:17;1.20;99.90
13405;DHT22;6773;51.192;7.024;2023-04-03T01:01:25;1.20;99.90
13405;DHT22;6773;51.192;7.024;2023-04-03T01:03:51;1.20;99.90
13405;DHT22;6773;51.192;7.024;2023-04-03T01:06:21;1.20;99.90
13405;DHT22;6773;51.192;7.024;2023-04-03T01:08:49;1.10;99.90
13405;DHT22;6773;51.192;7.024;2023-04-03T01:11:15;1.20;99.90
13405;DHT22;6773;51.192;7.024;2023-04-03T01:13:41;1.20;99.90
13405;DHT22;6773;51.192;7.024;2023-04-03T01:16:07;1.20;99.90
13405;DHT22;6773;51.192;7.024;2023-04-03T01:18:34;1.20;99.90
13405;DHT22;6773;51.192;7.024;2023-04-03T01:26:37;1.20;99.90
13405;DHT22;6773;51.192;7.024;2023-04-03T01:29:02;1.10;99.90
13405;DHT22;6773;51.192;7.024;2023-04-03T01:34:05;1.10;99.90
13405;DHT22;6773;51.192;7.024;2023-04-03T01:36:31;1.10;99.90
13405;DHT22;6773;51.192;7.024;2023-04-03T01:38:59;1.10;99.90
13405;DHT22;6773;51.192;7.024;2023-04-03T01:41:25;1.10;99.90
13405;DHT22;6773;51.192;7.024;2023-04-03T01:43:51;1.20;99.90
13405;DHT22;6773;51.192;7.024;2023-04-03T01:46:18;1.20;99.90
13405;DHT22;6773;51.192;7.024;2023-04-03T01:48:44;1.20;99.90
13405;DHT22;6773;51.192;7.024;2023-04-03T01:51:10;1.20;99.90
13405;DHT22;6773;51.192;7.024;2023-04-03T01:53:35;1.20;99.90
13405;DHT22;6773;51.192;7.024;2023-04-03T01:58:27;1.30;99.90
13405;DHT22;6773;51.192;7.024;2023-04-03T02:00:53;1.30;99.90
13405;DHT22;6773;51.192;7.024;2023-04-03T02:05:45;1.30;99.90
13405;DHT22;6773;51.192;7.024;2023-04-03T02:08:11;1.20;99.90
13405;DHT22;6773;51.192;7.024;2023-04-03T02:10:36;1.30;99.90
13405;DHT22;6773;51.192;7.024;2023-04-03T02:13:02;1.20;99.90
13405;DHT22;6773;51.192;7.024;2023-04-03T02:17:54;1.30;99.90
13405;DHT22;6773;51.192;7.024;2023-04-03T02:20:19;1.30;99.90
13405;DHT22;6773;51.192;7.024;2023-04-03T02:22:46;1.20;99.90
13405;DHT22;6773;51.192;7.024;2023-04-03T02:27:38;1.20;99.90
13405;DHT22;6773;51.192;7.024;2023-04-03T02:30:04;1.30;99.90
13405;DHT22;6773;51.192;7.024;2023-04-03T02:34:56;1.20;99.90
13405;DHT22;6773;51.192;7.024;2023-04-03T02:37:22;1.20;99.90
13405;DHT22;6773;51.192;7.024;2023-04-03T02:42:14;1.20;99.90
13405;DHT22;6773;51.192;7.024;2023-04-03T02:44:39;1.10;99.90
13405;DHT22;6773;51.192;7.024;2023-04-03T02:47:05;1.10;99.90
13405;DHT22;6773;51.192;7.024;2023-04-03T02:49:31;1.10;99.90
13405;DHT22;6773;51.192;7.024;2023-04-03T02:54:23;1.10;99.90
13405;DHT22;6773;51.192;7.024;2023-04-03T02:56:53;1.00;99.90
13405;DHT22;6773;51.192;7.024;2023-04-03T02:59:18;1.00;99.90
13405;DHT22;6773;51.192;7.024;2023-04-03T03:04:10;1.00;99.90
13405;DHT22;6773;51.192;7.024;2023-04-03T03:06:35;1.00;99.90
13405;DHT22;6773;51.192;7.024;2023-04-03T03:09:01;1.00;99.90
13405;DHT22;6773;51.192;7.024;2023-04-03T03:11:27;0.90;99.90
13405;DHT22;6773;51.192;7.024;2023-04-03T03:13:52;0.90;99.90
13405;DHT22;6773;51.192;7.024;2023-04-03T03:16:18;0.90;99.90
13405;DHT22;6773;51.192;7.024;2023-04-03T03:18:43;0.90;99.90
13405;DHT22;6773;51.192;7.024;2023-04-03T03:21:10;0.80;99.90
13405;DHT22;6773;51.192;7.024;2023-04-03T03:23:36;0.90;99.90
13405;DHT22;6773;51.192;7.024;2023-04-03T03:26:05;0.90;99.90
13405;DHT22;6773;51.192;7.024;2023-04-03T03:28:31;0.80;99.90
13405;DHT22;6773;51.192;7.024;2023-04-03T03:30:59;0.80;99.90
13405;DHT22;6773;51.192;7.024;2023-04-03T03:33:25;0.80;99.90
13405;DHT22;6773;51.192;7.024;2023-04-03T03:35:52;0.80;99.90
13405;DHT22;6773;51.192;7.024;2023-04-03T03:38:18;0.70;99.90
13405;DHT22;6773;51.192;7.024;2023-04-03T03:40:44;0.80;99.90
13405;DHT22;6773;51.192;7.024;2023-04-03T03:43:10;0.80;99.90
13405;DHT22;6773;51.192;7.024;2023-04-03T03:45:35;0.80;99.90
13405;DHT22;6773;51.192;7.024;2023-04-03T03:48:02;0.70;99.90
13405;DHT22;6773;51.192;7.024;2023-04-03T03:50:27;0.70;99.90
13405;DHT22;6773;51.192;7.024;2023-04-03T03:52:53;0.70;99.90
13405;DHT22;6773;51.192;7.024;2023-04-03T03:55:19;0.70;99.90
13405;DHT22;6773;51.192;7.024;2023-04-03T03:57:45;0.70;99.90
13405;DHT22;6773;51.192;7.024;2023-04-03T04:00:11;0.70;99.90
13405;DHT22;6773;51.192;7.024;2023-04-03T04:02:37;0.60;99.90
13405;DHT22;6773;51.192;7.024;2023-04-03T04:05:02;0.60;99.90
13405;DHT22;6773;51.192;7.024;2023-04-03T04:07:28;0.60;99.90
13405;DHT22;6773;51.192;7.024;2023-04-03T04:09:54;0.60;99.90
13405;DHT22;6773;51.192;7.024;2023-04-03T04:14:47;0.60;99.90
13405;DHT22;6773;51.192;7.024;2023-04-03T04:17:15;0.60;99.90
13405;DHT22;6773;51.192;7.024;2023-04-03T04:19:41;0.60;99.90
13405;DHT22;6773;51.192;7.024;2023-04-03T04:22:06;0.50;99.90
13405;DHT22;6773;51.192;7.024;2023-04-03T04:24:32;0.50;99.90
13405;DHT22;6773;51.192;7.024;2023-04-03T04:26:58;0.60;99.90
13405;DHT22;6773;51.192;7.024;2023-04-03T04:29:23;0.50;99.90
13405;DHT22;6773;51.192;7.024;2023-04-03T04:31:49;0.50;99.90
13405;DHT22;6773;51.192;7.024;2023-04-03T04:36:41;0.50;99.90
13405;DHT22;6773;51.192;7.024;2023-04-03T04:39:07;0.50;99.90
13405;DHT22;6773;51.192;7.024;2023-04-03T04:41:33;0.50;99.90
13405;DHT22;6773;51.192;7.024;2023-04-03T04:44:00;0.40;99.90
13405;DHT22;6773;51.192;7.024;2023-04-03T04:46:25;0.50;99.90
13405;DHT22;6773;51.192;7.024;2023-04-03T04:48:51;0.50;99.90
13405;DHT22;6773;51.192;7.024;2023-04-03T04:51:17;0.40;99.90
13405;DHT22;6773;51.192;7.024;2023-04-03T04:53:43;0.50;99.90
13405;DHT22;6773;51.192;7.024;2023-04-03T04:56:08;0.50;99.90
13405;DHT22;6773;51.192;7.024;2023-04-03T05:03:26;0.40;99.90
13405;DHT22;6773;51.192;7.024;2023-04-03T05:05:52;0.30;99.90
13405;DHT22;6773;51.192;7.024;2023-04-03T05:10:45;0.40;99.90
13405;DHT22;6773;51.192;7.024;2023-04-03T05:13:11;0.40;99.90
13405;DHT22;6773;51.192;7.024;2023-04-03T05:18:02;0.30;99.90
13405;DHT22;6773;51.192;7.024;2023-04-03T05:20:28;0.30;99.90
13405;DHT22;6773;51.192;7.024;2023-04-03T05:22:54;0.30;99.90
13405;DHT22;6773;51.192;7.024;2023-04-03T05:25:19;0.30;99.90
13405;DHT22;6773;51.192;7.024;2023-04-03T05:27:45;0.40;99.90
13405;DHT22;6773;51.192;7.024;2023-04-03T05:30:11;0.30;99.90
13405;DHT22;6773;51.192;7.024;2023-04-03T05:32:36;0.30;99.90
13405;DHT22;6773;51.192;7.024;2023-04-03T05:35:02;0.30;99.90
13405;DHT22;6773;51.192;7.024;2023-04-03T05:37:28;0.30;99.90
13405;DHT22;6773;51.192;7.024;2023-04-03T05:39:54;0.40;99.90
13405;DHT22;6773;51.192;7.024;2023-04-03T05:47:12;0.40;99.90
13405;DHT22;6773;51.192;7.024;2023-04-03T05:52:26;0.50;99.90
13405;DHT22;6773;51.192;7.024;2023-04-03T05:57:18;0.60;99.90
13405;DHT22;6773;51.192;7.024;2023-04-03T05:59:44;0.70;99.90
13405;DHT22;6773;51.192;7.024;2023-04-03T06:02:12;0.60;99.90
13405;DHT22;6773;51.192;7.024;2023-04-03T06:07:04;0.70;99.90
13405;DHT22;6773;51.192;7.024;2023-04-03T06:09:30;0.80;99.90
13405;DHT22;6773;51.192;7.024;2023-04-03T06:11:56;0.90;99.90
13405;DHT22;6773;51.192;7.024;2023-04-03T06:14:24;1.00;99.90
13405;DHT22;6773;51.192;7.024;2023-04-03T06:16:50;1.00;99.90
13405;DHT22;6773;51.192;7.024;2023-04-03T06:21:41;1.20;99.90
13405;DHT22;6773;51.192;7.024;2023-04-03T06:24:07;1.20;99.90
13405;DHT22;6773;51.192;7.024;2023-04-03T06:26:33;1.30;99.90
13405;DHT22;6773;51.192;7.024;2023-04-03T06:28:59;1.40;99.90
13405;DHT22;6773;51.192;7.024;2023-04-03T06:33:51;1.60;99.90
13405;DHT22;6773;51.192;7.024;2023-04-03T06:36:18;1.70;99.90
13405;DHT22;6773;51.192;7.024;2023-04-03T06:38:46;1.80;99.90
13405;DHT22;6773;51.192;7.024;2023-04-03T06:41:12;2.00;99.90
13405;DHT22;6773;51.192;7.024;2023-04-03T06:43:37;2.10;99.90
13405;DHT22;6773;51.192;7.024;2023-04-03T06:46:03;2.20;99.90
13405;DHT22;6773;51.192;7.024;2023-04-03T06:48:29;2.40;99.90
13405;DHT22;6773;51.192;7.024;2023-04-03T06:50:55;2.60;99.90
13405;DHT22;6773;51.192;7.024;2023-04-03T06:55:47;2.90;99.90
13405;DHT22;6773;51.192;7.024;2023-04-03T06:58:13;2.90;99.90
13405;DHT22;6773;51.192;7.024;2023-04-03T07:00:40;2.90;99.90
13405;DHT22;6773;51.192;7.024;2023-04-03T07:03:06;3.10;99.90
13405;DHT22;6773;51.192;7.024;2023-04-03T07:05:32;3.10;99.90
13405;DHT22;6773;51.192;7.024;2023-04-03T07:07:58;3.20;99.90
13405;DHT22;6773;51.192;7.024;2023-04-03T07:10:23;3.40;99.90
13405;DHT22;6773;51.192;7.024;2023-04-03T07:12:49;3.50;99.90
13405;DHT22;6773;51.192;7.024;2023-04-03T07:15:15;3.50;99.90
13405;DHT22;6773;51.192;7.024;2023-04-03T07:17:40;3.60;99.90
13405;DHT22;6773;51.192;7.024;2023-04-03T07:20:07;3.50;99.90
13405;DHT22;6773;51.192;7.024;2023-04-03T07:24:59;3.90;99.90
13405;DHT22;6773;51.192;7.024;2023-04-03T07:27:25;4.10;99.90
13405;DHT22;6773;51.192;7.024;2023-04-03T07:29:51;4.20;99.90
13405;DHT22;6773;51.192;7.024;2023-04-03T07:32:17;4.40;99.90
13405;DHT22;6773;51.192;7.024;2023-04-03T07:34:43;4.40;99.90
13405;DHT22;6773;51.192;7.024;2023-04-03T07:37:09;4.50;99.90
13405;DHT22;6773;51.192;7.024;2023-04-03T07:39:35;4.80;99.90
13405;DHT22;6773;51.192;7.024;2023-04-03T07:42:01;5.00;99.90
13405;DHT22;6773;51.192;7.024;2023-04-03T07:44:27;5.20;99.90
13405;DHT22;6773;51.192;7.024;2023-04-03T07:46:53;5.20;99.00
13405;DHT22;6773;51.192;7.024;2023-04-03T07:49:20;5.30;98.60
13405;DHT22;6773;51.192;7.024;2023-04-03T07:51:48;5.40;98.40
13405;DHT22;6773;51.192;7.024;2023-04-03T07:54:14;5.50;97.60
13405;DHT22;6773;51.192;7.024;2023-04-03T07:56:41;5.60;96.50
13405;DHT22;6773;51.192;7.024;2023-04-03T07:59:08;5.70;96.30
13405;DHT22;6773;51.192;7.024;2023-04-03T08:01:34;5.80;96.90
13405;DHT22;6773;51.192;7.024;2023-04-03T08:04:00;6.00;96.60
13405;DHT22;6773;51.192;7.024;2023-04-03T08:06:26;6.00;94.60
13405;DHT22;6773;51.192;7.024;2023-04-03T08:08:52;6.10;95.20
13405;DHT22;6773;51.192;7.024;2023-04-03T08:11:17;6.20;94.70
13405;DHT22;6773;51.192;7.024;2023-04-03T08:13:44;6.30;94.80
13405;DHT22;6773;51.192;7.024;2023-04-03T08:16:16;6.30;93.80
13405;DHT22;6773;51.192;7.024;2023-04-03T08:18:42;6.50;93.90
13405;DHT22;6773;51.192;7.024;2023-04-03T08:21:10;6.70;94.20
13405;DHT22;6773;51.192;7.024;2023-04-03T08:23:36;6.70;92.90
13405;DHT22;6773;51.192;7.024;2023-04-03T08:26:16;7.00;94.10
13405;DHT22;6773;51.192;7.024;2023-04-03T08:28:42;7.00;93.40
13405;DHT22;6773;51.192;7.024;2023-04-03T08:31:11;7.10;92.40
13405;DHT22;6773;51.192;7.024;2023-04-03T08:33:38;7.00;90.80
13405;DHT22;6773;51.192;7.024;2023-04-03T08:36:08;6.80;91.60
13405;DHT22;6773;51.192;7.024;2023-04-03T08:38:40;6.90;92.40
13405;DHT22;6773;51.192;7.024;2023-04-03T08:41:37;7.10;92.30
13405;DHT22;6773;51.192;7.024;2023-04-03T08:47:37;7.50;93.20
13405;DHT22;6773;51.192;7.024;2023-04-03T08:50:01;7.50;92.80
13405;DHT22;6773;51.192;7.024;2023-04-03T08:52:38;7.60;92.10
13405;DHT22;6773;51.192;7.024;2023-04-03T08:55:10;8.00;92.40
13405;DHT22;6773;51.192;7.024;2023-04-03T08:57:43;8.20;91.10
13405;DHT22;6773;51.192;7.024;2023-04-03T09:02:51;8.20;90.90
13405;DHT22;6773;51.192;7.024;2023-04-03T09:08:14;8.00;90.00
13405;DHT22;6773;51.192;7.024;2023-04-03T09:10:43;8.30;90.70
13405;DHT22;6773;51.192;7.024;2023-04-03T09:13:24;8.70;88.60
13405;DHT22;6773;51.192;7.024;2023-04-03T09:15:53;8.80;87.00
13405;DHT22;6773;51.192;7.024;2023-04-03T09:18:23;8.80;83.30
13405;DHT22;6773;51.192;7.024;2023-04-03T09:21:07;9.00;86.30
13405;DHT22;6773;51.192;7.024;2023-04-03T09:23:51;9.20;82.70
13405;DHT22;6773;51.192;7.024;2023-04-03T09:27:17;8.60;79.40
13405;DHT22;6773;51.192;7.024;2023-04-03T09:29:20;8.90;81.70
13405;DHT22;6773;51.192;7.024;2023-04-03T09:31:49;9.20;77.20
13405;DHT22;6773;51.192;7.024;2023-04-03T09:39:22;8.80;75.10
13405;DHT22;6773;51.192;7.024;2023-04-03T09:42:03;8.90;71.50
13405;DHT22;6773;51.192;7.024;2023-04-03T09:44:38;9.20;71.90
13405;DHT22;6773;51.192;7.024;2023-04-03T09:47:31;9.60;74.00
13405;DHT22;6773;51.192;7.024;2023-04-03T09:52:45;10.00;67.30
13405;DHT22;6773;51.192;7.024;2023-04-03T09:55:17;9.80;70.80
13405;DHT22;6773;51.192;7.024;2023-04-03T09:57:45;10.00;69.70
13405;DHT22;6773;51.192;7.024;2023-04-03T10:00:23;10.00;66.60
13405;DHT22;6773;51.192;7.024;2023-04-03T10:02:56;9.80;65.40
13405;DHT22;6773;51.192;7.024;2023-04-03T10:10:44;10.00;69.70
13405;DHT22;6773;51.192;7.024;2023-04-03T10:15:46;10.30;63.70
13405;DHT22;6773;51.192;7.024;2023-04-03T10:18:28;10.50;67.40
13405;DHT22;6773;51.192;7.024;2023-04-03T10:20:59;10.70;67.20
13405;DHT22;6773;51.192;7.024;2023-04-03T10:31:28;10.60;66.40
13405;DHT22;6773;51.192;7.024;2023-04-03T10:34:06;9.80;67.50
13405;DHT22;6773;51.192;7.024;2023-04-03T10:37:06;10.70;68.20
13405;DHT22;6773;51.192;7.024;2023-04-03T10:40:02;11.20;67.60
13405;DHT22;6773;51.192;7.024;2023-04-03T10:45:28;11.50;64.90
13405;DHT22;6773;51.192;7.024;2023-04-03T10:48:04;11.80;66.40
13405;DHT22;6773;51.192;7.024;2023-04-03T10:58:35;12.40;65.20
13405;DHT22;6773;51.192;7.024;2023-04-03T11:01:18;12.70;61.60
13405;DHT22;6773;51.192;7.024;2023-04-03T11:03:48;12.50;62.80
13405;DHT22;6773;51.192;7.024;2023-04-03T11:06:16;12.40;61.20
13405;DHT22;6773;51.192;7.024;2023-04-03T11:11:27;12.10;62.80
13405;DHT22;6773;51.192;7.024;2023-04-03T11:14:05;12.30;57.70
13405;DHT22;6773;51.192;7.024;2023-04-03T11:16:40;12.30;58.40
13405;DHT22;6773;51.192;7.024;2023-04-03T11:19:22;12.10;59.00
13405;DHT22;6773;51.192;7.024;2023-04-03T11:21:57;11.40;59.40
13405;DHT22;6773;51.192;7.024;2023-04-03T11:24:29;11.90;62.70
13405;DHT22;6773;51.192;7.024;2023-04-03T11:26:58;12.50;61.70
13405;DHT22;6773;51.192;7.024;2023-04-03T11:29:32;12.30;61.60
13405;DHT22;6773;51.192;7.024;2023-04-03T11:34:42;12.40;60.00
13405;DHT22;6773;51.192;7.024;2023-04-03T11:37:22;12.70;61.60
13405;DHT22;6773;51.192;7.024;2023-04-03T11:39:57;12.80;59.30
13405;DHT22;6773;51.192;7.024;2023-04-03T11:42:40;12.90;57.60
13405;DHT22;6773;51.192;7.024;2023-04-03T11:47:54;13.10;55.90
13405;DHT22;6773;51.192;7.024;2023-04-03T11:51:00;13.10;56.00
13405;DHT22;6773;51.192;7.024;2023-04-03T11:53:33;13.70;58.90
13405;DHT22;6773;51.192;7.024;2023-04-03T12:01:52;13.90;56.20
13405;DHT22;6773;51.192;7.024;2023-04-03T12:04:22;12.30;52.10
13405;DHT22;6773;51.192;7.024;2023-04-03T12:06:54;12.80;52.50
13405;DHT22;6773;51.192;7.024;2023-04-03T12:09:33;13.20;55.90
13405;DHT22;6773;51.192;7.024;2023-04-03T12:12:01;11.80;53.30
13405;DHT22;6773;51.192;7.024;2023-04-03T12:14:46;12.10;57.40
13405;DHT22;6773;51.192;7.024;2023-04-03T12:17:22;13.10;56.10
13405;DHT22;6773;51.192;7.024;2023-04-03T12:22:16;13.60;52.90
13405;DHT22;6773;51.192;7.024;2023-04-03T12:24:44;13.50;50.40
13405;DHT22;6773;51.192;7.024;2023-04-03T12:35:20;13.50;51.00
13405;DHT22;6773;51.192;7.024;2023-04-03T12:38:01;13.20;51.80
13405;DHT22;6773;51.192;7.024;2023-04-03T12:48:53;13.70;51.70
13405;DHT22;6773;51.192;7.024;2023-04-03T12:51:37;13.90;53.10
13405;DHT22;6773;51.192;7.024;2023-04-03T12:56:38;13.80;50.50
13405;DHT22;6773;51.192;7.024;2023-04-03T12:59:23;12.50;49.20
13405;DHT22;6773;51.192;7.024;2023-04-03T13:01:57;11.30;50.20
13405;DHT22;6773;51.192;7.024;2023-04-03T13:04:23;14.00;99.90
13405;DHT22;6773;51.192;7.024;2023-04-03T13:06:49;14.00;99.90
13405;DHT22;6773;51.192;7.024;2023-04-03T13:09:23;16.90;93.40
13405;DHT22;6773;51.192;7.024;2023-04-03T13:11:54;19.00;85.80
13405;DHT22;6773;51.192;7.024;2023-04-03T13:14:24;18.10;59.50
13405;DHT22;6773;51.192;7.024;2023-04-03T13:19:30;18.30;68.10
13405;DHT22;6773;51.192;7.024;2023-04-03T13:22:02;19.10;59.10
13405;DHT22;6773;51.192;7.024;2023-04-03T13:24:33;19.60;64.20
13405;DHT22;6773;51.192;7.024;2023-04-03T13:26:59;19.40;59.30
13405;DHT22;6773;51.192;7.024;2023-04-03T13:29:32;19.20;54.10
13405;DHT22;6773;51.192;7.024;2023-04-03T13:31:59;19.20;54.10
13405;DHT22;6773;51.192;7.024;2023-04-03T13:34:28;19.70;59.90
13405;DHT22;6773;51.192;7.024;2023-04-03T13:36:57;20.20;55.70
13405;DHT22;6773;51.192;7.024;2023-04-03T13:39:30;20.00;56.60
13405;DHT22;6773;51.192;7.024;2023-04-03T13:41:59;20.00;60.80
13405;DHT22;6773;51.192;7.024;2023-04-03T13:44:35;20.00;57.90
13405;DHT22;6773;51.192;7.024;2023-04-03T13:49:43;19.00;58.80
13405;DHT22;6773;51.192;7.024;2023-04-03T13:52:27;19.50;55.40
13405;DHT22;6773;51.192;7.024;2023-04-03T13:54:57;17.90;46.40
13405;DHT22;6773;51.192;7.024;2023-04-03T13:57:24;16.70;47.20
13405;DHT22;6773;51.192;7.024;2023-04-03T13:59:50;16.00;47.10
13405;DHT22;6773;51.192;7.024;2023-04-03T14:02:29;14.20;46.80
13405;DHT22;6773;51.192;7.024;2023-04-03T14:04:58;13.10;48.80
13405;DHT22;6773;51.192;7.024;2023-04-03T14:07:27;13.30;52.80
13405;DHT22;6773;51.192;7.024;2023-04-03T14:09:54;14.10;51.80
13405;DHT22;6773;51.192;7.024;2023-04-03T14:12:25;13.90;51.10
13405;DHT22;6773;51.192;7.024;2023-04-03T14:14:52;13.60;53.40
13405;DHT22;6773;51.192;7.024;2023-04-03T14:17:21;13.60;52.70
13405;DHT22;6773;51.192;7.024;2023-04-03T14:19:47;13.10;49.90
13405;DHT22;6773;51.192;7.024;2023-04-03T14:22:26;13.10;52.20
13405;DHT22;6773;51.192;7.024;2023-04-03T14:24:52;13.30;51.70
13405;DHT22;6773;51.192;7.024;2023-04-03T14:27:26;13.50;53.10
13405;DHT22;6773;51.192;7.024;2023-04-03T14:29:53;13.80;54.30
13405;DHT22;6773;51.192;7.024;2023-04-03T14:32:21;14.10;52.90
13405;DHT22;6773;51.192;7.024;2023-04-03T14:34:48;13.50;54.90
13405;DHT22;6773;51.192;7.024;2023-04-03T14:37:16;13.40;52.80
13405;DHT22;6773;51.192;7.024;2023-04-03T14:39:44;13.10;52.90
13405;DHT22;6773;51.192;7.024;2023-04-03T14:42:18;13.00;51.40
13405;DHT22;6773;51.192;7.024;2023-04-03T14:44:44;12.70;52.00
13405;DHT22;6773;51.192;7.024;2023-04-03T14:47:15;13.30;53.60
13405;DHT22;6773;51.192;7.024;2023-04-03T14:49:41;13.40;53.60
13405;DHT22;6773;51.192;7.024;2023-04-03T14:52:20;13.60;53.60
13405;DHT22;6773;51.192;7.024;2023-04-03T14:54:47;13.60;54.20
13405;DHT22;6773;51.192;7.024;2023-04-03T14:57:14;13.20;55.60
13405;DHT22;6773;51.192;7.024;2023-04-03T14:59:40;13.20;55.80
13405;DHT22;6773;51.192;7.024;2023-04-03T15:02:24;13.10;55.40
13405;DHT22;6773;51.192;7.024;2023-04-03T15:07:16;13.50;56.70
13405;DHT22;6773;51.192;7.024;2023-04-03T15:09:42;13.10;54.60
13405;DHT22;6773;51.192;7.024;2023-04-03T15:12:08;12.70;55.40
13405;DHT22;6773;51.192;7.024;2023-04-03T15:19:27;12.90;58.80
13405;DHT22;6773;51.192;7.024;2023-04-03T15:21:53;13.20;57.20
13405;DHT22;6773;51.192;7.024;2023-04-03T15:24:18;13.50;55.10
13405;DHT22;6773;51.192;7.024;2023-04-03T15:26:44;13.10;54.70
13405;DHT22;6773;51.192;7.024;2023-04-03T15:31:36;12.80;55.20
13405;DHT22;6773;51.192;7.024;2023-04-03T15:34:02;12.60;56.60
13405;DHT22;6773;51.192;7.024;2023-04-03T15:36:28;12.60;57.80
13405;DHT22;6773;51.192;7.024;2023-04-03T15:38:54;12.80;57.70
13405;DHT22;6773;51.192;7.024;2023-04-03T15:41:19;12.80;56.60
13405;DHT22;6773;51.192;7.024;2023-04-03T15:43:45;12.80;56.30
13405;DHT22;6773;51.192;7.024;2023-04-03T15:46:12;14.90;94.80
13405;DHT22;6773;51.192;7.024;2023-04-03T15:48:37;17.10;81.60
13405;DHT22;6773;51.192;7.024;2023-04-03T15:51:04;17.20;84.90
13405;DHT22;6773;51.192;7.024;2023-04-03T15:53:30;18.60;79.50
13405;DHT22;6773;51.192;7.024;2023-04-03T15:55:56;19.20;70.70
13405;DHT22;6773;51.192;7.024;2023-04-03T15:58:21;18.80;63.90
13405;DHT22;6773;51.192;7.024;2023-04-03T16:00:47;18.80;64.80
13405;DHT22;6773;51.192;7.024;2023-04-03T16:03:16;19.20;67.60
13405;DHT22;6773;51.192;7.024;2023-04-03T16:05:42;19.50;61.50
13405;DHT22;6773;51.192;7.024;2023-04-03T16:08:08;18.50;64.70
13405;DHT22;6773;51.192;7.024;2023-04-03T16:10:36;18.70;56.10
13405;DHT22;6773;51.192;7.024;2023-04-03T16:13:02;18.90;61.90
13405;DHT22;6773;51.192;7.024;2023-04-03T16:15:29;18.70;62.30
13405;DHT22;6773;51.192;7.024;2023-04-03T16:17:55;19.00;54.70
13405;DHT22;6773;51.192;7.024;2023-04-03T16:20:22;18.80;60.20
13405;DHT22;6773;51.192;7.024;2023-04-03T16:22:48;18.80;60.20
13405;DHT22;6773;51.192;7.024;2023-04-03T16:25:14;19.20;53.40
13405;DHT22;6773;51.192;7.024;2023-04-03T16:27:40;18.40;56.40
13405;DHT22;6773;51.192;7.024;2023-04-03T16:30:07;18.50;57.30
13405;DHT22;6773;51.192;7.024;2023-04-03T16:32:34;18.70;59.60
13405;DHT22;6773;51.192;7.024;2023-04-03T16:35:00;18.30;55.90
13405;DHT22;6773;51.192;7.024;2023-04-03T16:37:25;18.30;57.50
13405;DHT22;6773;51.192;7.024;2023-04-03T16:39:51;18.20;56.70
13405;DHT22;6773;51.192;7.024;2023-04-03T16:42:17;17.50;57.60
13405;DHT22;6773;51.192;7.024;2023-04-03T16:44:43;17.00;59.50
13405;DHT22;6773;51.192;7.024;2023-04-03T16:47:09;16.50;58.80
13405;DHT22;6773;51.192;7.024;2023-04-03T16:49:35;17.00;56.00
13405;DHT22;6773;51.192;7.024;2023-04-03T16:52:03;17.20;58.80
13405;DHT22;6773;51.192;7.024;2023-04-03T16:54:29;17.70;57.70
13405;DHT22;6773;51.192;7.024;2023-04-03T16:56:55;15.90;49.40
13405;DHT22;6773;51.192;7.024;2023-04-03T16:59:21;14.00;51.90
13405;DHT22;6773;51.192;7.024;2023-04-03T17:01:46;12.50;55.20
13405;DHT22;6773;51.192;7.024;2023-04-03T17:04:14;11.10;56.70
13405;DHT22;6773;51.192;7.024;2023-04-03T17:06:45;10.40;59.00
13405;DHT22;6773;51.192;7.024;2023-04-03T17:09:10;10.10;59.40
13405;DHT22;6773;51.192;7.024;2023-04-03T17:11:37;9.80;60.60
13405;DHT22;6773;51.192;7.024;2023-04-03T17:14:03;9.60;60.50
13405;DHT22;6773;51.192;7.024;2023-04-03T17:16:29;9.40;62.10
13405;DHT22;6773;51.192;7.024;2023-04-03T17:18:55;9.40;62.40
13405;DHT22;6773;51.192;7.024;2023-04-03T17:21:22;9.20;61.70
13405;DHT22;6773;51.192;7.024;2023-04-03T17:23:51;9.10;63.20
13405;DHT22;6773;51.192;7.024;2023-04-03T17:26:19;9.00;62.60
13405;DHT22;6773;51.192;7.024;2023-04-03T17:36:04;8.20;65.20
13405;DHT22;6773;51.192;7.024;2023-04-03T17:38:31;8.00;64.70
13405;DHT22;6773;51.192;7.024;2023-04-03T17:40:58;7.70;65.00
13405;DHT22;6773;51.192;7.024;2023-04-03T17:43:25;7.60;66.10
13405;DHT22;6773;51.192;7.024;2023-04-03T17:45:51;7.40;66.30
13405;DHT22;6773;51.192;7.024;2023-04-03T17:48:17;7.20;67.10
13405;DHT22;6773;51.192;7.024;2023-04-03T18:00:31;6.80;69.70
13405;DHT22;6773;51.192;7.024;2023-04-03T18:02:57;6.60;69.70
13405;DHT22;6773;51.192;7.024;2023-04-03T18:05:27;6.50;70.20
13405;DHT22;6773;51.192;7.024;2023-04-03T18:07:53;6.30;70.60
13405;DHT22;6773;51.192;7.024;2023-04-03T18:10:19;6.30;71.30
13405;DHT22;6773;51.192;7.024;2023-04-03T18:12:45;6.20;71.50
13405;DHT22;6773;51.192;7.024;2023-04-03T18:15:11;6.00;71.20
13405;DHT22;6773;51.192;7.024;2023-04-03T18:17:36;6.00;72.10
13405;DHT22;6773;51.192;7.024;2023-04-03T18:20:03;6.00;73.20
13405;DHT22;6773;51.192;7.024;2023-04-03T18:22:28;5.90;72.00
13405;DHT22;6773;51.192;7.024;2023-04-03T18:24:56;5.70;71.90
13405;DHT22;6773;51.192;7.024;2023-04-03T18:27:24;5.70;73.00
13405;DHT22;6773;51.192;7.024;2023-04-03T18:29:54;5.80;73.10
13405;DHT22;6773;51.192;7.024;2023-04-03T18:34:47;5.60;73.80
13405;DHT22;6773;51.192;7.024;2023-04-03T18:37:13;5.40;72.70
13405;DHT22;6773;51.192;7.024;2023-04-03T18:39:39;5.40;73.40
13405;DHT22;6773;51.192;7.024;2023-04-03T18:42:08;5.40;73.40
13405;DHT22;6773;51.192;7.024;2023-04-03T18:44:36;5.30;73.70
13405;DHT22;6773;51.192;7.024;2023-04-03T18:49:30;5.20;73.90
13405;DHT22;6773;51.192;7.024;2023-04-03T18:51:56;5.20;75.00
13405;DHT22;6773;51.192;7.024;2023-04-03T18:54:22;5.10;75.20
13405;DHT22;6773;51.192;7.024;2023-04-03T18:59:14;5.00;75.70
13405;DHT22;6773;51.192;7.024;2023-04-03T19:01:40;5.00;76.20
13405;DHT22;6773;51.192;7.024;2023-04-03T19:04:06;4.90;76.20
13405;DHT22;6773;51.192;7.024;2023-04-03T19:06:33;4.90;77.10
13405;DHT22;6773;51.192;7.024;2023-04-03T19:09:00;4.90;77.50
13405;DHT22;6773;51.192;7.024;2023-04-03T19:11:26;4.90;77.60
13405;DHT22;6773;51.192;7.024;2023-04-03T19:13:52;4.80;78.00
13405;DHT22;6773;51.192;7.024;2023-04-03T19:18:44;4.70;77.60
13405;DHT22;6773;51.192;7.024;2023-04-03T19:23:36;4.70;78.50